Historique des mesures à Cassis (13260), France
Quotidien Résumé Juillet 28, 2017 Unités:  Métrique    US   Métrique/US
« Précédent (Jour)
Suivant (Jour) »
Quotidien Hebdomadaire Mensuel Annuel Période au choix
  Maximum: Minimum: Moyenne:
Température: TemperatureC °C 23.3 °C 25.5 °C
Point de rosée: DewpointC °C 15.0 °C 15.5 °C
Humidité: Humidity % 41 % 52 %
Vitesse du vent: 0 km/h 0 km/h 23 km/h
Rafales: 0 km/h - -
Vent:- - WSW
Pression: PressurehPa hPa 1008.0 hPa -
Précipitations: 0.0 mm    
Historical Graphs
 
 
Mesures pour : Juillet 28, 2017
Heure Temperature Point de rosée Pression Vent Vitesse du vent Rafales Humidité Pluie (par heure) Conditions
TemperatureC °C DewpointC °C PressurehPa hPa Calm     Humidity % HourlyPrecipMM mm SoftwareType W/m2
00:11 23.3 °C 17.6 °C 1008.0 hPa WNW 13.2 km/h 22 km/h 70 % 0.0 mm open2300-1.11 W/m2
01:11 23.9 °C 17.1 °C 1008.4 hPa Calm   3.4 km/h 66 % 0.0 mm open2300-1.11 W/m2
02:11 24.0 °C 16.8 °C 1008.4 hPa WNW 23 km/h 23 km/h 64 % 0.0 mm open2300-1.11 W/m2
03:11 24.5 °C 16.2 °C 1008.4 hPa NNW 7.6 km/h 23 km/h 60 % 0.0 mm open2300-1.11 W/m2
04:11 24.4 °C 16.4 °C 1008.0 hPa West 23 km/h 24.3 km/h 61 % 0.0 mm open2300-1.11 W/m2
05:11 24.3 °C 16.6 °C 1008.7 hPa NW 29.5 km/h 29.5 km/h 62 % 0.0 mm open2300-1.11 W/m2
06:11 23.9 °C 16.4 °C 1009.0 hPa North 7.6 km/h 27.2 km/h 63 % 0.0 mm open2300-1.11 W/m2
08:11 25.3 °C 15.8 °C 1009.4 hPa North 37.5 km/h 54.4 km/h 56 % 0.0 mm open2300-1.11 W/m2
09:11 25.3 °C 15.0 °C 1009.4 hPa WNW 26.7 km/h 26.7 km/h 53 % 0.0 mm open2300-1.11 W/m2
10:11 26.3 °C 15.1 °C 1009.4 hPa NW 18.7 km/h 35.2 km/h 50 % 0.0 mm open2300-1.11 W/m2
11:11 28.9 °C 15.4 °C 1009.7 hPa NNE 12.2 km/h 26.7 km/h 44 % 0.0 mm open2300-1.11 W/m2
12:11 30.1 °C 15.4 °C 1009.4 hPa North 21.6 km/h 21.6 km/h 41 % 0.0 mm open2300-1.11 W/m2
13:11 30.7 °C 16.0 °C 1009.7 hPa West 40.7 km/h 44.6 km/h 41 % 0.0 mm open2300-1.11 W/m2
14:11 30.1 °C 15.4 °C 1009.7 hPa WNW 29.5 km/h 45.4 km/h 41 % 0.0 mm open2300-1.11 W/m2
15:11 29.1 °C 15.2 °C 1009.7 hPa NW 54.9 km/h 54.9 km/h 43 % 0.0 mm open2300-1.11 W/m2
16:11 28.9 °C 15.4 °C 1009.4 hPa NNW 52 km/h 59.5 km/h 44 % 0.0 mm open2300-1.11 W/m2
17:11 28.9 °C 15.4 °C 1009.0 hPa NNW 31.9 km/h 36.5 km/h 44 % 0.0 mm open2300-1.11 W/m2
18:11 28.4 °C 16.3 °C 1009.4 hPa NW 53.3 km/h 53.3 km/h 48 % 0.0 mm open2300-1.11 W/m2
19:11 27.6 °C 16.8 °C 1009.4 hPa WNW 21.6 km/h 38.8 km/h 52 % 0.0 mm open2300-1.11 W/m2
20:11 26.7 °C 16.9 °C 1009.7 hPa NNW 22.5 km/h 48.6 km/h 55 % 0.0 mm open2300-1.11 W/m2
21:11 26.1 °C 17.2 °C 1010.0 hPa North 8 km/h 10.3 km/h 58 % 0.0 mm open2300-1.11 W/m2
22:11 25.5 °C 17.4 °C 1010.7 hPa West 5.6 km/h 22 km/h 61 % 0.0 mm open2300-1.11 W/m2
23:11 25.4 °C 17.1 °C 1010.7 hPa NNW 12.7 km/h 19.6 km/h 60 % 0.0 mm open2300-1.11 W/m2
Observations météo à CASSIS
WU-History script by Weather Underground - 1 mb